Aviation Digital Data Service (ADDS)

Output produced by METARs form (2229 UTC 26 March 2015)
found at http://aviationweather.gov/adds/metars/
 
KMFD 261739Z 2618/2718 33007KT 6SM BR VCSH BKN006 OVC040 
     FM262100 34006KT P6SM OVC020 
     FM270000 29008KT P6SM OVC040 
     FM270600 30006KT P6SM SCT040 
     FM271100 31010KT P6SM BKN019 
     FM271500 31010KT P6SM OVC020